Time;durP1;ratioP1;P1;durP2;ratioP2;P2;SDS_P1;SDS_P2;PMS_P1;PMS_P2;Temp;Humidity;BMP_temperature;BMP_pressure;BME280_temperature;BME280_humidity;BME280_pressure;Samples;Min_cycle;Max_cycle;Signal;HPM_P1;HPM_P2
2020/12/23 00:02:07;;;;;;;12.60;6.43;;;;;;;8.19;69.91;101112.81;5018887;28;20252;-74
2020/12/23 00:04:34;;;;;;;10.40;5.63;;;;;;;8.15;69.72;101111.84;5018336;28;20178;-75
2020/12/23 00:07:00;;;;;;;13.70;5.73;;;;;;;8.25;70.40;101106.03;5018397;28;20260;-74
2020/12/23 00:09:25;;;;;;;13.23;5.87;;;;;;;8.15;70.20;101105.78;5018454;28;20466;-75
2020/12/23 00:11:54;;;;;;;27.27;16.40;;;;;;;8.37;69.84;101100.25;5018554;28;20175;-74
2020/12/23 00:14:20;;;;;;;16.07;9.57;;;;;;;8.47;68.74;101103.09;5018396;28;20183;-75
2020/12/23 00:16:45;;;;;;;15.77;6.47;;;;;;;8.30;68.55;101103.53;5018599;28;20425;-75
2020/12/23 00:19:10;;;;;;;11.00;5.30;;;;;;;8.39;67.57;101106.38;5018217;28;20426;-74
2020/12/23 00:21:36;;;;;;;15.13;6.07;;;;;;;8.33;67.57;101107.94;5018203;28;20174;-74
2020/12/23 00:24:01;;;;;;;9.17;5.90;;;;;;;8.30;68.09;101105.28;5018184;28;20242;-75
2020/12/23 00:26:26;;;;;;;7.80;4.40;;;;;;;8.11;68.26;101096.16;5017428;28;20233;-75
2020/12/23 00:28:52;;;;;;;12.33;4.93;;;;;;;8.27;68.85;101090.50;5017929;28;20218;-75
2020/12/23 00:31:17;;;;;;;10.23;5.23;;;;;;;8.21;68.94;101100.72;5018010;28;20579;-75
2020/12/23 00:33:43;;;;;;;14.97;6.50;;;;;;;8.15;68.19;101095.38;5017986;28;20194;-74
2020/12/23 00:36:13;;;;;;;16.57;7.63;;;;;;;8.18;68.72;101098.91;5018409;28;20233;-74
2020/12/23 00:38:38;;;;;;;10.63;5.50;;;;;;;8.05;69.54;101094.25;5017945;28;20753;-75
2020/12/23 00:41:07;;;;;;;15.23;5.77;;;;;;;7.84;70.42;101105.84;5017999;28;20500;-74
2020/12/23 00:43:32;;;;;;;14.77;7.60;;;;;;;7.56;71.57;101114.59;5018172;28;20186;-74
2020/12/23 00:45:57;;;;;;;13.23;7.40;;;;;;;7.71;71.34;101099.44;5017870;28;20483;-76
2020/12/23 00:48:23;;;;;;;19.60;6.07;;;;;;;7.74;70.95;101094.34;5017807;28;20179;-75
2020/12/23 00:50:48;;;;;;;13.33;7.00;;;;;;;7.80;70.80;101095.34;5018011;28;20217;-75
2020/12/23 00:53:13;;;;;;;9.93;5.63;;;;;;;7.72;71.00;101093.41;5017660;28;20213;-75
2020/12/23 00:55:38;;;;;;;16.40;7.70;;;;;;;7.82;70.69;101083.28;5017761;28;20513;-75
2020/12/23 00:58:04;;;;;;;10.23;5.47;;;;;;;7.76;71.33;101086.59;5018009;28;20532;-74
2020/12/23 01:00:29;;;;;;;13.40;8.57;;;;;;;7.81;70.61;101086.72;5017477;28;20181;-74
2020/12/23 01:02:54;;;;;;;12.57;5.57;;;;;;;7.65;71.25;101094.09;5017552;28;20179;-74
2020/12/23 01:05:20;;;;;;;12.63;6.00;;;;;;;7.39;71.67;101107.22;5017887;28;20209;-74
2020/12/23 01:07:45;;;;;;;12.60;6.03;;;;;;;7.78;71.08;101107.38;5017526;28;20453;-74
2020/12/23 01:10:10;;;;;;;12.17;6.57;;;;;;;7.50;71.79;101106.66;5017303;28;20206;-74
2020/12/23 01:12:35;;;;;;;14.50;7.57;;;;;;;7.44;71.33;101104.72;5017865;28;20218;-75
2020/12/23 01:15:01;;;;;;;12.37;8.27;;;;;;;7.44;71.84;101120.28;5017492;28;20589;-74
2020/12/23 01:17:26;;;;;;;17.70;7.73;;;;;;;7.62;71.18;101122.56;5017493;28;20178;-76
2020/12/23 01:19:51;;;;;;;15.70;7.33;;;;;;;7.65;71.48;101130.41;5017652;28;20258;-75
2020/12/23 01:22:17;;;;;;;20.60;6.53;;;;;;;7.74;70.67;101133.25;5017305;28;20183;-74
2020/12/23 01:24:42;;;;;;;15.23;6.97;;;;;;;7.55;71.51;101130.97;5017194;28;20596;-74
2020/12/23 01:27:07;;;;;;;15.13;7.23;;;;;;;7.72;71.37;101131.47;5017655;28;20170;-75
2020/12/23 01:29:32;;;;;;;25.27;7.20;;;;;;;7.58;72.39;101121.56;5017139;28;20234;-74
2020/12/23 01:31:58;;;;;;;13.00;7.23;;;;;;;7.65;72.07;101130.41;5017089;28;20199;-75
2020/12/23 01:34:23;;;;;;;19.30;7.93;;;;;;;7.51;72.45;101127.44;5017664;28;20167;-74
2020/12/23 01:36:49;;;;;;;16.00;7.73;;;;;;;7.52;72.54;101128.31;5017521;28;20187;-74
2020/12/23 01:39:14;;;;;;;12.13;7.50;;;;;;;7.40;73.19;101123.63;5021187;28;20167;-74
2020/12/23 01:41:40;;;;;;;13.70;7.20;;;;;;;7.31;73.12;101111.31;5021541;28;20418;-75
2020/12/23 01:44:05;;;;;;;15.90;7.67;;;;;;;7.36;73.01;101116.59;5021140;28;20179;-75
2020/12/23 01:46:31;;;;;;;19.97;7.97;;;;;;;7.60;72.04;101111.22;5021025;28;20179;-74
2020/12/23 01:48:57;;;;;;;19.83;8.83;;;;;;;7.33;73.08;101116.53;5021263;28;20234;-74
2020/12/23 01:51:24;;;;;;;17.93;8.40;;;;;;;7.61;72.80;101118.19;5020933;28;20460;-74
2020/12/23 01:53:49;;;;;;;14.90;8.40;;;;;;;7.51;72.68;101126.53;5020752;28;20800;-74
2020/12/23 01:56:19;;;;;;;14.57;7.73;;;;;;;7.13;74.13;101122.03;5021333;28;20414;-74
2020/12/23 01:58:46;;;;;;;15.63;8.47;;;;;;;7.45;73.62;101128.97;5022255;28;20182;-74
2020/12/23 02:01:13;;;;;;;79.73;40.97;;;;;;;7.29;74.67;101125.06;5040670;28;20421;-74
2020/12/23 02:03:38;;;;;;;14.30;8.27;;;;;;;7.31;73.83;101120.81;5040261;28;20416;-74
2020/12/23 02:06:04;;;;;;;21.10;11.10;;;;;;;7.45;73.87;101121.19;5037602;28;20424;-74
2020/12/23 02:08:32;;;;;;;18.07;7.90;;;;;;;7.10;74.76;101121.03;5028610;28;20205;-73
2020/12/23 02:10:58;;;;;;;13.30;8.77;;;;;;;7.54;73.54;101122.31;5020913;28;20194;-73
2020/12/23 02:13:40;;;;;;;18.83;9.67;;;;;;;7.24;73.27;101120.63;5019928;28;20424;-73
2020/12/23 02:16:05;;;;;;;15.20;8.20;;;;;;;7.01;74.56;101119.03;5021677;28;20185;-72
2020/12/23 02:18:32;;;;;;;18.10;8.80;;;;;;;7.12;74.61;101116.75;5028714;28;20421;-73
2020/12/23 02:20:58;;;;;;;13.70;8.50;;;;;;;7.17;74.30;101110.00;5028954;28;20541;-72
2020/12/23 02:23:23;;;;;;;17.27;9.10;;;;;;;7.29;73.32;101110.34;5036893;28;20421;-75
2020/12/23 02:25:49;;;;;;;19.43;8.50;;;;;;;7.30;73.63;101109.53;5028783;28;20248;-74
2020/12/23 02:28:15;;;;;;;15.30;8.60;;;;;;;7.24;73.71;101117.16;5039816;28;20244;-75
2020/12/23 02:30:40;;;;;;;16.83;8.60;;;;;;;7.21;73.70;101111.84;5040174;28;20174;-74
2020/12/23 02:33:05;;;;;;;20.90;8.57;;;;;;;7.14;74.57;101107.34;5039783;28;20443;-74
2020/12/23 02:35:31;;;;;;;13.53;7.90;;;;;;;7.09;73.84;101104.63;5039881;28;20193;-74
2020/12/23 02:37:56;;;;;;;13.17;8.53;;;;;;;7.01;74.26;101104.38;5040034;28;20178;-74
2020/12/23 02:40:21;;;;;;;20.93;10.30;;;;;;;7.02;74.73;101098.38;5039580;28;20559;-74
2020/12/23 02:42:47;;;;;;;17.00;8.30;;;;;;;7.19;73.76;101103.16;5039869;28;20219;-75
2020/12/23 02:45:13;;;;;;;19.53;8.90;;;;;;;7.12;73.92;101102.09;5040148;28;20193;-75
2020/12/23 02:47:38;;;;;;;19.70;9.23;;;;;;;7.13;74.09;101108.16;5039672;28;20766;-75
2020/12/23 02:50:04;;;;;;;25.83;9.93;;;;;;;6.94;74.78;101110.22;5039028;28;20452;-74
2020/12/23 02:52:29;;;;;;;23.60;10.93;;;;;;;6.98;74.65;101103.41;5040139;28;20208;-74
2020/12/23 02:54:54;;;;;;;20.73;10.93;;;;;;;7.40;73.52;101101.19;5039646;28;20186;-74
2020/12/23 02:57:19;;;;;;;21.23;11.13;;;;;;;7.13;74.36;101100.38;5039534;28;20174;-74
2020/12/23 02:59:45;;;;;;;22.17;11.03;;;;;;;7.21;74.41;101110.16;5039750;28;20189;-74
2020/12/23 03:02:10;;;;;;;19.73;11.23;;;;;;;7.30;74.46;101100.88;5039425;28;20185;-74
2020/12/23 03:04:35;;;;;;;13.50;10.20;;;;;;;7.19;74.01;101088.47;5039448;28;20228;-75
2020/12/23 03:07:01;;;;;;;19.40;12.60;;;;;;;7.16;74.24;101090.13;5039765;28;20189;-74
2020/12/23 03:09:26;;;;;;;22.23;11.40;;;;;;;7.14;74.45;101097.81;5039033;28;20206;-75
2020/12/23 03:11:51;;;;;;;22.53;11.33;;;;;;;7.04;74.29;101096.69;5039232;28;20193;-74
2020/12/23 03:14:17;;;;;;;22.23;11.60;;;;;;;7.26;74.23;101097.31;5039609;28;20174;-73
2020/12/23 03:16:42;;;;;;;17.50;12.70;;;;;;;7.38;74.56;101096.78;5039137;28;20575;-75
2020/12/23 03:19:08;;;;;;;16.03;12.40;;;;;;;7.39;74.43;101095.97;5038859;28;20173;-75
2020/12/23 03:21:33;;;;;;;27.50;14.30;;;;;;;7.49;74.13;101097.09;5039399;28;20524;-74
2020/12/23 03:23:58;;;;;;;20.20;12.33;;;;;;;7.36;75.11;101104.53;5038766;28;20556;-76
2020/12/23 03:26:23;;;;;;;27.13;13.13;;;;;;;7.48;74.31;101101.41;5039036;28;20181;-75
2020/12/23 03:28:49;;;;;;;27.70;12.53;;;;;;;7.48;74.09;101103.13;5039195;28;20198;-75
2020/12/23 03:31:15;;;;;;;23.67;14.00;;;;;;;7.39;74.07;101103.75;5039071;28;20174;-75
2020/12/23 03:33:41;;;;;;;21.77;13.47;;;;;;;7.43;74.60;101100.41;5039260;28;20269;-74
2020/12/23 03:36:06;;;;;;;21.53;13.07;;;;;;;7.54;74.29;101108.50;5039352;28;20441;-74
2020/12/23 03:38:31;;;;;;;19.33;13.60;;;;;;;7.42;74.42;101096.91;5039034;28;20239;-75
2020/12/23 03:40:57;;;;;;;24.87;14.20;;;;;;;7.53;74.51;101088.56;5038857;28;20174;-75
2020/12/23 03:43:23;;;;;;;23.90;13.40;;;;;;;7.65;73.95;101096.69;5039029;28;20189;-75
2020/12/23 03:45:49;;;;;;;24.60;15.17;;;;;;;7.25;75.15;101093.84;5038721;28;20170;-74
2020/12/23 03:48:14;;;;;;;21.43;14.67;;;;;;;7.46;74.70;101090.09;5038587;28;20409;-74
2020/12/23 03:50:40;;;;;;;34.10;18.97;;;;;;;7.75;74.67;101084.81;5038968;28;20440;-73
2020/12/23 03:53:05;;;;;;;32.27;18.37;;;;;;;7.74;74.68;101083.94;5038599;28;20239;-75
2020/12/23 03:55:31;;;;;;;35.83;21.40;;;;;;;7.53;75.25;101084.25;5038600;28;20178;-73
2020/12/23 03:57:56;;;;;;;45.73;23.70;;;;;;;7.45;75.91;101085.75;5038911;28;20170;-74
2020/12/23 04:00:21;;;;;;;36.73;24.60;;;;;;;7.37;76.32;101084.66;5037762;28;20233;-74
2020/12/23 04:02:47;;;;;;;58.33;27.37;;;;;;;7.33;76.64;101080.22;5037817;28;20547;-74
2020/12/23 04:05:12;;;;;;;55.20;25.10;;;;;;;7.34;76.53;101077.66;5038790;28;20200;-75
2020/12/23 04:07:38;;;;;;;69.20;26.90;;;;;;;7.41;76.72;101082.22;5038386;28;20540;-75
2020/12/23 04:10:04;;;;;;;82.40;27.47;;;;;;;7.53;76.19;101079.03;5038045;28;20206;-74
2020/12/23 04:12:30;;;;;;;59.73;26.10;;;;;;;7.42;76.88;101075.28;5038597;28;20212;-74
2020/12/23 04:14:55;;;;;;;135.93;28.07;;;;;;;7.44;76.58;101083.97;5038109;28;20421;-74
2020/12/23 04:17:20;;;;;;;283.37;41.17;;;;;;;7.68;75.38;101081.19;5038022;28;20185;-74
2020/12/23 04:19:46;;;;;;;106.60;29.00;;;;;;;7.57;76.10;101073.09;5038369;28;20476;-73
2020/12/23 04:22:11;;;;;;;175.90;31.50;;;;;;;7.70;75.22;101074.34;5038053;28;20186;-74
2020/12/23 04:24:37;;;;;;;209.83;34.53;;;;;;;7.50;75.58;101075.50;5037729;28;20367;-74
2020/12/23 04:27:03;;;;;;;115.10;31.83;;;;;;;7.36;76.34;101075.09;5038455;28;20170;-74
2020/12/23 04:29:28;;;;;;;96.80;29.10;;;;;;;7.34;76.71;101072.47;5037690;28;20486;-74
2020/12/23 04:31:53;;;;;;;140.90;27.27;;;;;;;7.46;75.69;101071.94;5037800;28;20181;-74
2020/12/23 04:34:18;;;;;;;292.43;32.93;;;;;;;7.16;75.81;101072.84;5038255;28;20178;-74
2020/12/23 04:36:44;;;;;;;264.37;30.60;;;;;;;7.27;76.88;101072.28;5037814;28;20201;-74
2020/12/23 04:39:09;;;;;;;555.87;41.63;;;;;;;6.79;77.19;101065.69;5037695;28;20208;-74
2020/12/23 04:41:35;;;;;;;240.33;30.00;;;;;;;7.07;77.17;101076.03;5038161;28;20206;-74
2020/12/23 04:44:01;;;;;;;284.17;34.87;;;;;;;7.00;77.38;101071.50;5036913;28;20178;-75
2020/12/23 04:46:30;;;;;;;316.37;30.90;;;;;;;6.97;77.19;101076.59;5036760;28;20633;-74
2020/12/23 04:48:57;;;;;;;482.83;39.23;;;;;;;6.88;76.80;101073.75;5036937;28;20449;-74
2020/12/23 04:51:29;;;;;;;729.27;48.80;;;;;;;6.83;77.48;101078.78;5037574;28;20508;-73
2020/12/23 04:53:56;;;;;;;336.90;34.57;;;;;;;6.88;77.19;101072.00;5037516;28;20423;-74
2020/12/23 04:56:21;;;;;;;654.03;51.20;;;;;;;6.76;77.40;101075.97;5036922;28;20421;-74
2020/12/23 04:58:46;;;;;;;589.67;49.43;;;;;;;6.60;78.04;101065.09;5037396;28;20403;-75
2020/12/23 05:01:12;;;;;;;361.90;39.00;;;;;;;6.78;77.46;101067.41;5037641;28;20181;-75
2020/12/23 05:03:39;;;;;;;290.13;28.87;;;;;;;6.87;77.25;101064.19;5036572;28;20189;-74
2020/12/23 05:06:07;;;;;;;325.80;30.43;;;;;;;6.88;76.68;101061.66;5037474;28;20492;-73
2020/12/23 05:08:34;;;;;;;353.10;33.03;;;;;;;6.91;76.92;101063.44;5037654;28;20424;-74
2020/12/23 05:11:08;;;;;;;242.73;29.57;;;;;;;7.02;76.46;101063.78;5037225;28;20421;-75
2020/12/23 05:13:34;;;;;;;322.90;31.90;;;;;;;7.05;76.21;101067.34;5037024;28;20425;-74
2020/12/23 05:15:59;;;;;;;204.27;30.63;;;;;;;6.89;76.52;101060.81;5037442;28;20424;-74
2020/12/23 05:18:35;;;;;;;391.17;35.07;;;;;;;6.93;75.88;101060.91;5037318;28;20681;-74
2020/12/23 05:21:01;;;;;;;667.43;51.73;;;;;;;6.69;75.98;101065.41;5037122;28;20208;-74
2020/12/23 05:23:30;;;;;;;230.93;29.33;;;;;;;6.96;76.28;101063.59;5036384;28;20413;-74
2020/12/23 05:26:04;;;;;;;390.27;35.53;;;;;;;6.83;75.83;101060.66;5037386;28;20433;-74
2020/12/23 05:28:33;;;;;;;451.70;37.53;;;;;;;6.72;76.63;101068.09;5037369;28;20814;-74
2020/12/23 05:31:03;;;;;;;262.57;29.93;;;;;;;6.84;76.06;101064.97;5037344;28;20424;-74
2020/12/23 05:33:31;;;;;;;299.83;34.00;;;;;;;6.69;77.21;101072.31;5037557;28;20417;-74
2020/12/23 05:35:56;;;;;;;153.53;29.27;;;;;;;6.81;77.51;101072.66;5037611;28;20803;-74
2020/12/23 05:38:22;;;;;;;267.67;31.97;;;;;;;6.71;76.46;101075.81;5038630;28;20507;-74
2020/12/23 05:40:47;;;;;;;253.67;34.97;;;;;;;6.53;77.60;101081.28;5039070;28;20316;-74
2020/12/23 05:43:14;;;;;;;401.30;40.83;;;;;;;6.64;76.75;101082.50;5037765;28;20551;-74
2020/12/23 05:45:42;;;;;;;298.63;36.43;;;;;;;6.31;78.87;101078.03;5037516;28;20166;-74
2020/12/23 05:48:13;;;;;;;444.50;39.20;;;;;;;6.59;77.84;101073.72;5037010;28;20419;-74
2020/12/23 05:50:39;;;;;;;257.27;32.60;;;;;;;7.08;75.79;101069.16;5036838;28;20468;-74
2020/12/23 05:53:15;;;;;;;345.23;35.03;;;;;;;6.92;76.62;101067.81;5037213;28;20444;-76
2020/12/23 05:55:48;;;;;;;651.07;44.90;;;;;;;6.30;77.42;101065.91;5036971;28;20416;-74
2020/12/23 05:58:21;;;;;;;157.57;29.70;;;;;;;6.86;76.99;101063.31;5037007;28;20692;-75
2020/12/23 06:00:48;;;;;;;159.33;26.80;;;;;;;6.46;78.27;101069.00;5036708;28;20491;-74
2020/12/23 06:03:22;;;;;;;239.20;30.27;;;;;;;6.83;76.89;101067.53;5036776;28;20680;-75
2020/12/23 06:06:01;;;;;;;199.43;29.70;;;;;;;6.68;77.34;101076.59;5036789;28;20421;-73
2020/12/23 06:08:37;;;;;;;322.03;34.43;;;;;;;6.89;76.29;101065.13;5036682;28;20462;-74
2020/12/23 06:11:31;;;;;;;208.70;28.07;;;;;;;5.97;77.46;101074.28;5036676;28;20478;-75
2020/12/23 06:14:16;;;;;;;277.13;28.90;;;;;;;6.49;76.87;101076.84;5036782;28;20782;-73
2020/12/23 06:16:59;;;;;;;205.90;37.47;;;;;;;6.64;78.02;101081.63;5016872;28;20705;-74
2020/12/23 06:19:37;;;;;;;93.90;25.00;;;;;;;6.97;76.19;101068.84;5016734;28;20415;-74
2020/12/23 06:22:04;;;;;;;91.07;35.97;;;;;;;6.98;75.99;101072.28;5016971;28;20678;-74
2020/12/23 06:24:29;;;;;;;125.57;25.47;;;;;;;7.03;75.59;101074.19;5017825;28;20461;-74
2020/12/23 06:26:57;;;;;;;154.47;28.03;;;;;;;6.89;75.79;101073.78;5020537;28;20484;-74
2020/12/23 06:29:28;;;;;;;101.20;26.10;;;;;;;6.71;75.97;101078.38;5020195;28;20301;-73
2020/12/23 06:31:56;;;;;;;125.70;27.87;;;;;;;6.62;77.21;101072.94;5020675;28;20460;-74
2020/12/23 06:34:23;;;;;;;166.83;27.83;;;;;;;6.92;76.06;101085.94;5019561;28;20414;-75
2020/12/23 06:36:49;;;;;;;180.60;29.23;;;;;;;6.48;76.72;101080.25;5020196;28;20421;-74
2020/12/23 06:39:27;;;;;;;133.30;29.27;;;;;;;6.64;76.28;101095.47;5020417;28;20391;-75
2020/12/23 06:41:55;;;;;;;129.40;28.57;;;;;;;6.91;74.94;101089.38;5020266;28;20406;-75
2020/12/23 06:44:20;;;;;;;102.93;26.70;;;;;;;6.58;76.67;101087.50;5020168;28;20480;-74
2020/12/23 06:47:00;;;;;;;85.20;24.53;;;;;;;7.19;74.37;101090.19;5020098;28;20735;-75
2020/12/23 06:49:44;;;;;;;106.00;28.37;;;;;;;7.05;74.44;101088.09;5019623;28;20198;-74
2020/12/23 06:52:26;;;;;;;252.20;32.83;;;;;;;6.84;75.45;101080.53;5035776;28;20563;-75
2020/12/23 06:54:53;;;;;;;137.40;23.97;;;;;;;6.50;76.45;101079.50;5039385;28;20670;-75
2020/12/23 06:57:39;;;;;;;56.13;22.30;;;;;;;6.30;75.26;101090.91;5039361;28;20416;-74
2020/12/23 07:00:07;;;;;;;84.40;22.87;;;;;;;6.40;75.80;101087.81;5039431;28;20420;-75
2020/12/23 07:02:35;;;;;;;135.03;23.10;;;;;;;6.52;74.97;101087.31;5039559;28;20453;-74
2020/12/23 07:05:00;;;;;;;215.97;28.50;;;;;;;6.55;74.42;101082.25;5039367;28;20500;-74
2020/12/23 07:07:33;;;;;;;177.07;28.30;;;;;;;6.36;75.02;101092.00;5039826;28;20539;-74
2020/12/23 07:10:14;;;;;;;115.50;25.23;;;;;;;6.54;75.82;101096.00;5039205;28;20206;-73
2020/12/23 07:13:06;;;;;;;181.97;28.10;;;;;;;5.77;76.70;101093.44;5039405;28;20417;-74
2020/12/23 07:15:36;;;;;;;115.97;32.70;;;;;;;6.00;77.28;101099.44;5039351;28;20413;-75
2020/12/23 07:18:14;;;;;;;142.27;26.40;;;;;;;6.35;75.62;101104.91;5039419;28;20459;-74
2020/12/23 07:20:52;;;;;;;82.97;29.53;;;;;;;6.44;75.84;101118.16;5039091;28;20473;-74
2020/12/23 07:23:19;;;;;;;149.17;25.03;;;;;;;6.22;75.31;101107.09;5039251;28;20503;-75
2020/12/23 07:25:47;;;;;;;108.53;23.20;;;;;;;6.43;74.96;101105.13;5038894;28;20846;-74
2020/12/23 07:28:15;;;;;;;131.30;23.50;;;;;;;6.39;74.99;101110.22;5038477;28;20409;-74
2020/12/23 07:30:41;;;;;;;177.57;24.87;;;;;;;6.22;75.00;101101.00;5039274;28;20465;-74
2020/12/23 07:33:16;;;;;;;159.50;23.10;;;;;;;6.21;74.94;101083.72;5038812;28;20815;-74
2020/12/23 07:35:47;;;;;;;138.90;24.20;;;;;;;6.09;75.26;101088.50;5038787;28;20180;-74
2020/12/23 07:38:13;;;;;;;133.87;22.93;;;;;;;5.87;75.62;101085.13;5038931;28;20412;-74
2020/12/23 07:40:38;;;;;;;103.13;21.50;;;;;;;5.77;75.33;101088.25;5038665;28;20437;-75
2020/12/23 07:43:04;;;;;;;157.77;23.10;;;;;;;6.13;74.99;101085.16;5039183;28;20409;-74
2020/12/23 07:45:30;;;;;;;153.93;24.10;;;;;;;6.02;75.11;101088.31;5037195;28;20206;-74
2020/12/23 07:47:57;;;;;;;107.20;23.83;;;;;;;5.93;74.92;101082.78;5038716;28;20180;-74
2020/12/23 07:50:23;;;;;;;131.97;23.23;;;;;;;5.85;75.29;101087.69;5038803;28;20480;-74
2020/12/23 07:52:48;;;;;;;98.17;21.43;;;;;;;6.02;74.37;101090.88;5038559;28;20420;-74
2020/12/23 07:55:18;;;;;;;80.73;22.17;;;;;;;5.99;75.09;101085.59;5034145;28;20417;-75
2020/12/23 07:57:44;;;;;;;185.83;25.60;;;;;;;6.07;74.74;101079.00;5028134;28;20225;-74
2020/12/23 08:00:11;;;;;;;183.20;25.20;;;;;;;5.59;75.94;101066.09;5029449;28;20418;-74
2020/12/23 08:02:36;;;;;;;205.77;24.10;;;;;;;5.25;78.37;101067.47;5027176;28;20441;-74
2020/12/23 08:05:06;;;;;;;164.30;23.33;;;;;;;4.44;80.76;101057.47;5037927;28;20471;-74
2020/12/23 08:07:31;;;;;;;237.30;26.43;;;;;;;4.92;81.29;101061.91;5038433;28;20166;-75
2020/12/23 08:10:05;;;;;;;43.53;20.93;;;;;;;5.27;79.63;101067.53;5038180;28;20469;-74
2020/12/23 08:12:30;;;;;;;230.17;29.13;;;;;;;4.98;79.18;101051.81;5038285;28;20174;-75
2020/12/23 08:14:55;;;;;;;51.87;23.97;;;;;;;5.65;78.48;101044.72;5034872;28;20425;-73
2020/12/23 08:17:22;;;;;;;97.00;24.20;;;;;;;5.48;77.58;101044.13;5029498;28;20174;-74
2020/12/23 08:20:01;;;;;;;109.30;25.23;;;;;;;6.07;76.55;101037.56;5026759;28;20171;-75
2020/12/23 08:22:27;;;;;;;63.93;23.57;;;;;;;6.39;74.38;101031.66;5026028;28;20414;-74
2020/12/23 08:25:00;;;;;;;40.60;21.73;;;;;;;6.33;75.08;101029.75;5023290;28;20501;-75
2020/12/23 08:27:25;;;;;;;57.63;22.43;;;;;;;6.48;74.12;101031.97;5017578;28;20183;-75
2020/12/23 08:29:50;;;;;;;77.33;24.00;;;;;;;6.35;74.75;101033.25;5022954;28;20469;-75
2020/12/23 08:32:17;;;;;;;53.80;22.63;;;;;;;6.65;73.45;101032.47;5028488;28;20245;-73
2020/12/23 08:34:43;;;;;;;178.27;29.43;;;;;;;6.27;74.33;101037.31;5015509;28;20520;-72
2020/12/23 08:37:08;;;;;;;82.20;23.63;;;;;;;5.86;76.24;101047.19;5019801;28;20502;-73
2020/12/23 08:39:33;;;;;;;63.53;23.20;;;;;;;6.16;75.20;101036.13;5036402;28;20536;-74
2020/12/23 08:42:06;;;;;;;66.03;24.20;;;;;;;6.17;75.93;101038.75;5031414;28;20228;-73
2020/12/23 08:44:32;;;;;;;82.73;23.30;;;;;;;6.31;74.60;101036.59;5036601;28;20174;-75
2020/12/23 08:46:57;;;;;;;164.97;23.80;;;;;;;6.20;74.48;101038.84;5036225;28;20447;-75
2020/12/23 08:49:23;;;;;;;124.67;23.73;;;;;;;6.08;75.48;101043.63;5035478;28;20476;-75
2020/12/23 08:51:48;;;;;;;157.33;22.73;;;;;;;6.21;74.88;101034.53;5037022;28;20162;-74
2020/12/23 08:54:14;;;;;;;176.57;24.40;;;;;;;6.47;73.50;101037.06;5036575;28;20178;-74
2020/12/23 08:56:48;;;;;;;147.87;23.30;;;;;;;6.10;74.45;101038.50;5036248;28;20185;-74
2020/12/23 08:59:14;;;;;;;280.70;28.10;;;;;;;6.32;74.51;101035.78;5036764;28;20513;-74
2020/12/23 09:01:40;;;;;;;314.43;30.30;;;;;;;6.11;75.06;101032.50;5036124;28;20416;-74
2020/12/23 09:04:10;;;;;;;391.47;32.00;;;;;;;5.86;75.69;101026.47;5035590;28;20431;-73
2020/12/23 09:06:36;;;;;;;303.67;29.97;;;;;;;5.84;76.54;101022.94;5033423;28;20202;-73
2020/12/23 09:09:24;;;;;;;189.63;26.60;;;;;;;5.15;78.71;101026.59;5036069;28;20551;-72
2020/12/23 09:11:54;;;;;;;175.23;25.13;;;;;;;5.83;75.65;101022.09;5035885;28;20500;-72
2020/12/23 09:14:38;;;;;;;175.53;25.40;;;;;;;6.12;75.64;101014.41;5035899;28;20844;-72
2020/12/23 09:17:13;;;;;;;196.70;25.73;;;;;;;5.77;76.91;101011.50;5035976;28;20466;-72
2020/12/23 09:19:40;;;;;;;134.70;24.53;;;;;;;5.86;76.58;101008.38;5036055;28;20488;-73
2020/12/23 09:22:05;;;;;;;141.50;25.63;;;;;;;6.03;75.80;101006.34;5036110;28;20424;-73
2020/12/23 09:24:31;;;;;;;204.23;25.77;;;;;;;5.85;75.96;101014.38;5025440;28;20458;-72
2020/12/23 09:26:56;;;;;;;191.57;23.83;;;;;;;6.12;74.95;101013.56;5026648;28;20204;-72
2020/12/23 09:29:21;;;;;;;129.23;22.50;;;;;;;6.09;74.98;101018.59;5024046;28;20541;-73
2020/12/23 09:31:51;;;;;;;111.53;20.43;;;;;;;5.64;76.30;101009.34;5025347;28;20677;-74
2020/12/23 09:34:21;;;;;;;213.67;26.47;;;;;;;5.76;75.58;101014.91;5025873;28;20400;-74
2020/12/23 09:36:53;;;;;;;109.37;22.07;;;;;;;5.84;75.98;101022.94;5024642;28;20520;-74
2020/12/23 09:39:19;;;;;;;161.83;22.07;;;;;;;5.77;75.51;101026.16;5023447;28;20418;-74
2020/12/23 09:41:44;;;;;;;115.40;21.20;;;;;;;5.81;76.29;101020.28;5025101;28;20521;-73
2020/12/23 09:44:10;;;;;;;149.23;23.33;;;;;;;5.79;76.20;101017.63;5026189;28;20173;-74
2020/12/23 09:46:35;;;;;;;181.10;22.20;;;;;;;5.50;76.83;101006.28;5027354;28;20174;-73
2020/12/23 09:49:00;;;;;;;140.87;21.17;;;;;;;6.14;75.49;100993.75;5022985;28;20476;-73
2020/12/23 09:51:26;;;;;;;68.50;19.70;;;;;;;6.44;74.65;100987.75;5024419;28;20171;-71
2020/12/23 09:53:51;;;;;;;88.33;21.30;;;;;;;6.44;74.40;100982.59;5026427;28;20174;-73
2020/12/23 09:56:16;;;;;;;66.43;19.40;;;;;;;6.24;75.40;100973.38;5035568;28;20178;-74
2020/12/23 09:58:42;;;;;;;62.17;20.93;;;;;;;6.38;75.22;100971.19;5036059;28;20193;-74
2020/12/23 10:01:08;;;;;;;72.90;19.20;;;;;;;6.34;74.98;100971.06;5039452;28;20174;-74
2020/12/23 10:03:33;;;;;;;134.90;22.50;;;;;;;5.70;77.10;100978.53;5039467;28;20238;-74
2020/12/23 10:05:59;;;;;;;65.03;18.80;;;;;;;5.71;78.31;100980.25;5039553;28;20409;-74
2020/12/23 10:08:24;;;;;;;67.43;19.00;;;;;;;6.34;75.51;100982.31;5039324;28;20524;-74
2020/12/23 10:10:49;;;;;;;51.87;16.63;;;;;;;6.64;74.01;100981.47;5039351;28;20528;-76
2020/12/23 10:13:14;;;;;;;55.90;17.57;;;;;;;6.36;74.58;100970.28;5039916;28;20185;-74
2020/12/23 10:15:40;;;;;;;63.53;17.37;;;;;;;6.45;75.01;100964.50;5039285;28;20524;-73
2020/12/23 10:18:05;;;;;;;57.37;16.93;;;;;;;6.55;74.53;100957.91;5039707;28;20202;-73
2020/12/23 10:20:30;;;;;;;122.20;18.40;;;;;;;6.24;74.93;100951.81;5037516;28;20178;-74
2020/12/23 10:22:56;;;;;;;70.30;17.17;;;;;;;6.40;75.50;100933.31;5038854;28;20181;-74
2020/12/23 10:25:21;;;;;;;68.80;19.60;;;;;;;6.31;75.76;100937.34;5038398;28;20244;-74
2020/12/23 10:27:46;;;;;;;45.87;17.07;;;;;;;6.63;74.76;100945.16;5039331;28;20178;-75
2020/12/23 10:30:12;;;;;;;49.83;19.47;;;;;;;6.89;73.83;100933.81;5039074;28;20214;-75
2020/12/23 10:32:38;;;;;;;42.40;18.50;;;;;;;6.82;74.35;100911.19;5038672;28;20192;-75
2020/12/23 10:35:04;;;;;;;46.93;21.23;;;;;;;6.53;75.05;100906.03;5039425;28;20177;-74
2020/12/23 10:37:29;;;;;;;51.07;18.20;;;;;;;5.84;78.45;100898.75;5038834;28;20417;-74
2020/12/23 10:39:56;;;;;;;35.83;17.33;;;;;;;6.78;74.63;100893.78;5038760;28;20377;-74
2020/12/23 10:42:21;;;;;;;30.30;17.23;;;;;;;7.37;72.74;100896.22;5038959;28;20566;-73
2020/12/23 10:44:47;;;;;;;34.30;16.50;;;;;;;6.52;75.46;100891.34;5038717;28;20426;-73
2020/12/23 10:47:12;;;;;;;30.60;17.27;;;;;;;6.40;77.10;100891.00;5038530;28;20224;-73
2020/12/23 10:49:37;;;;;;;32.13;16.20;;;;;;;6.53;76.44;100900.00;5038863;28;20233;-73
2020/12/23 10:52:03;;;;;;;27.73;15.83;;;;;;;6.96;74.61;100890.81;5038573;28;20182;-74
2020/12/23 10:54:29;;;;;;;24.23;15.67;;;;;;;6.62;76.07;100891.63;5038697;28;20447;-73
2020/12/23 10:56:55;;;;;;;30.33;17.57;;;;;;;6.57;76.71;100884.56;5038884;28;20220;-73
2020/12/23 10:59:21;;;;;;;33.30;18.00;;;;;;;6.69;74.98;100878.84;5037880;28;20420;-74
2020/12/23 11:01:52;;;;;;;26.60;16.17;;;;;;;6.92;74.61;100876.03;5038299;28;20701;-73
2020/12/23 11:04:18;;;;;;;29.43;16.43;;;;;;;6.83;75.09;100873.19;5037330;28;20609;-73
2020/12/23 11:06:46;;;;;;;28.70;17.20;;;;;;;6.45;77.08;100883.34;5038344;28;20416;-73
2020/12/23 11:09:12;;;;;;;27.23;16.07;;;;;;;6.35;77.34;100882.22;5038074;28;20448;-72
2020/12/23 11:11:37;;;;;;;29.60;16.93;;;;;;;6.00;78.75;100885.50;5037785;28;20808;-73
2020/12/23 11:14:02;;;;;;;30.00;17.60;;;;;;;6.34;77.10;100878.72;5038178;28;20445;-74
2020/12/23 11:16:30;;;;;;;31.50;16.50;;;;;;;6.24;77.75;100876.72;5038222;28;20427;-74
2020/12/23 11:18:55;;;;;;;28.40;17.70;;;;;;;7.04;75.23;100863.38;5038397;28;20245;-73